Time;durP1;ratioP1;P1;durP2;ratioP2;P2;SDS_P1;SDS_P2;PMS_P1;PMS_P2;Temp;Humidity;BMP_temperature;BMP_pressure;BME280_temperature;BME280_humidity;BME280_pressure;Samples;Min_cycle;Max_cycle;Signal;HPM_P1;HPM_P2
2023/07/20 00:00:07;;;;;;;1.50;0.70;;;;;;;15.58;81.13;100558.45;106837;1257;72798;-72
2023/07/20 00:02:34;;;;;;;3.20;0.90;;;;;;;15.52;81.62;100562.86;107068;1256;60799;-71
2023/07/20 00:05:01;;;;;;;2.30;0.80;;;;;;;15.45;81.98;100562.55;106987;1256;61270;-73
2023/07/20 00:07:28;;;;;;;1.60;0.80;;;;;;;15.39;81.89;100564.41;107077;1256;74624;-73
2023/07/20 00:09:56;;;;;;;1.70;0.80;;;;;;;15.34;82.08;100567.80;107056;1256;71279;-73
2023/07/20 00:12:22;;;;;;;2.00;0.80;;;;;;;15.30;82.28;100566.17;106807;1262;72065;-73
2023/07/20 00:14:49;;;;;;;1.80;1.00;;;;;;;15.27;82.44;100559.64;106786;1256;62129;-72
2023/07/20 00:17:19;;;;;;;3.20;0.80;;;;;;;15.25;82.71;100562.45;107120;1256;61263;-72
2023/07/20 00:19:46;;;;;;;1.80;1.00;;;;;;;15.21;82.77;100556.89;106606;1257;73464;-72
2023/07/20 00:22:13;;;;;;;1.70;0.90;;;;;;;15.18;82.81;100553.58;106882;1257;71663;-73
2023/07/20 00:24:40;;;;;;;2.20;0.90;;;;;;;15.14;82.77;100546.46;107190;1256;72787;-73
2023/07/20 00:27:07;;;;;;;2.00;0.80;;;;;;;15.09;83.12;100543.35;107118;1256;61144;-73
2023/07/20 00:29:34;;;;;;;2.10;0.70;;;;;;;15.04;83.51;100544.55;106727;1256;61640;-73
2023/07/20 00:32:01;;;;;;;1.70;0.90;;;;;;;14.99;83.74;100537.58;106800;1256;75753;-71
2023/07/20 00:34:28;;;;;;;1.30;0.80;;;;;;;14.95;83.91;100537.21;106819;1256;70067;-73
2023/07/20 00:36:55;;;;;;;1.30;0.60;;;;;;;14.91;84.18;100538.65;106877;1256;71653;-73
2023/07/20 00:39:22;;;;;;;1.70;0.70;;;;;;;14.87;84.63;100541.82;107027;1259;62186;-73
2023/07/20 00:41:48;;;;;;;1.80;0.70;;;;;;;14.84;84.91;100542.85;106947;1255;61256;-73
2023/07/20 00:44:15;;;;;;;3.10;0.60;;;;;;;14.82;85.17;100544.05;107324;1256;72782;-73
2023/07/20 00:46:43;;;;;;;2.10;0.90;;;;;;;14.81;85.05;100540.42;107174;1257;70673;-72
2023/07/20 00:49:10;;;;;;;2.10;0.70;;;;;;;14.80;85.31;100538.27;107182;1256;71884;-73
2023/07/20 00:51:37;;;;;;;2.10;0.70;;;;;;;14.78;85.29;100536.33;106915;1256;61292;-74
2023/07/20 00:54:04;;;;;;;2.60;1.00;;;;;;;14.76;85.48;100533.20;106576;1256;61243;-74
2023/07/20 00:56:31;;;;;;;2.50;0.80;;;;;;;14.74;85.51;100528.71;106944;1256;74652;-74
2023/07/20 00:58:58;;;;;;;2.30;0.70;;;;;;;14.71;85.34;100525.93;106824;1259;71471;-73
2023/07/20 01:01:25;;;;;;;2.80;0.90;;;;;;;14.68;85.04;100528.40;107046;1255;71493;-73
2023/07/20 01:03:52;;;;;;;1.70;0.70;;;;;;;14.64;85.08;100524.41;107056;1256;61170;-73
2023/07/20 01:06:46;;;;;;;3.00;0.80;;;;;;;14.61;85.12;100527.05;106915;1256;61245;-74
2023/07/20 01:09:28;;;;;;;2.00;0.70;;;;;;;14.55;85.47;100532.66;106854;1256;75684;-73
2023/07/20 01:12:07;;;;;;;2.10;1.00;;;;;;;14.50;85.94;100530.90;107085;1255;71186;-73
2023/07/20 01:14:34;;;;;;;2.00;0.80;;;;;;;14.46;86.05;100535.59;106999;1256;73405;-73
2023/07/20 01:17:02;;;;;;;1.60;0.80;;;;;;;14.42;86.00;100535.92;106904;1256;61649;-73
2023/07/20 01:19:29;;;;;;;3.00;0.90;;;;;;;14.39;86.13;100537.96;106935;1259;61233;-73
2023/07/20 01:22:14;;;;;;;2.20;0.80;;;;;;;14.36;86.46;100539.41;107308;1257;74014;-74
2023/07/20 01:25:19;;;;;;;2.20;0.90;;;;;;;14.33;86.58;100541.61;106598;1259;70053;-73
2023/07/20 01:28:01;;;;;;;1.40;0.80;;;;;;;14.29;87.15;100545.27;107114;1255;70341;-72
2023/07/20 01:30:49;;;;;;;1.50;0.80;;;;;;;14.25;87.60;100540.58;106800;1256;62677;-74
2023/07/20 01:33:19;;;;;;;1.90;0.80;;;;;;;14.22;87.39;100535.84;107041;1256;61233;-72
2023/07/20 01:35:52;;;;;;;2.80;0.90;;;;;;;14.20;87.53;100536.55;106677;1259;73470;-72
2023/07/20 01:38:21;;;;;;;2.00;0.70;;;;;;;14.16;87.34;100537.56;106817;1256;238311;-73
2023/07/20 01:40:49;;;;;;;2.10;0.90;;;;;;;14.12;87.63;100539.13;107201;1255;70673;-72
2023/07/20 01:43:16;;;;;;;1.70;0.80;;;;;;;14.08;87.62;100541.65;107574;1256;62076;-72
2023/07/20 01:45:43;;;;;;;1.70;0.80;;;;;;;14.05;87.85;100537.30;107527;1256;61411;-74
2023/07/20 01:48:10;;;;;;;1.80;1.00;;;;;;;14.03;88.06;100536.88;107380;1256;75325;-73
2023/07/20 01:50:38;;;;;;;2.30;1.00;;;;;;;14.01;88.34;100537.48;107939;1256;70625;-73
2023/07/20 01:53:05;;;;;;;2.20;0.90;;;;;;;14.01;88.37;100539.63;107697;1256;74188;-73
2023/07/20 01:55:31;;;;;;;1.60;0.90;;;;;;;14.03;88.57;100539.83;106577;1255;61451;-73
2023/07/20 01:58:00;;;;;;;1.90;0.90;;;;;;;14.05;88.75;100537.73;106981;1257;63137;-73
2023/07/20 02:00:28;;;;;;;1.80;1.00;;;;;;;14.07;88.89;100541.69;106891;1259;74730;-73
2023/07/20 02:02:55;;;;;;;1.90;0.90;;;;;;;14.10;89.02;100539.52;106936;1256;69876;-72
2023/07/20 02:05:22;;;;;;;2.80;1.10;;;;;;;14.11;88.94;100538.99;106801;1256;73171;-72
2023/07/20 02:07:49;;;;;;;2.00;1.00;;;;;;;14.12;88.94;100539.73;106772;1256;62207;-72
2023/07/20 02:10:16;;;;;;;1.70;1.00;;;;;;;14.15;88.82;100539.16;106708;1262;61250;-73
2023/07/20 02:12:43;;;;;;;3.20;1.10;;;;;;;14.18;89.01;100535.31;106940;1257;74704;-73
2023/07/20 02:15:10;;;;;;;2.10;0.90;;;;;;;14.22;89.01;100539.27;107268;1256;69898;-73
2023/07/20 02:17:37;;;;;;;2.90;1.10;;;;;;;14.26;88.77;100536.84;107083;1256;71369;-72
2023/07/20 02:20:08;;;;;;;2.80;0.90;;;;;;;14.28;88.62;100539.85;106772;1256;62174;-72
2023/07/20 02:22:36;;;;;;;3.40;1.00;;;;;;;14.29;88.43;100536.44;106859;1256;61624;-73
2023/07/20 02:25:05;;;;;;;2.30;0.90;;;;;;;14.29;88.53;100532.45;106905;1257;73988;-73
2023/07/20 02:27:32;;;;;;;2.30;0.90;;;;;;;14.29;88.34;100533.43;107100;1256;71294;-72
2023/07/20 02:29:59;;;;;;;1.90;0.90;;;;;;;14.27;88.51;100533.30;106903;1255;71848;-72
2023/07/20 02:32:26;;;;;;;2.50;1.00;;;;;;;14.25;88.39;100529.66;107066;1256;61217;-72
2023/07/20 02:34:53;;;;;;;1.80;0.80;;;;;;;14.22;88.37;100531.95;107126;1256;60174;-72
2023/07/20 02:37:20;;;;;;;2.20;1.00;;;;;;;14.20;88.49;100528.67;107032;1256;74667;-72
2023/07/20 02:39:47;;;;;;;2.20;0.90;;;;;;;14.18;88.38;100532.52;106850;1256;71282;-71
2023/07/20 02:42:14;;;;;;;1.80;0.90;;;;;;;14.16;88.70;100536.73;106907;1256;74460;-74
2023/07/20 02:44:40;;;;;;;1.70;0.90;;;;;;;14.12;88.68;100536.94;106708;1258;62125;-72
2023/07/20 02:47:07;;;;;;;2.40;0.90;;;;;;;14.08;88.88;100539.23;106819;1256;62109;-73
2023/07/20 02:49:35;;;;;;;1.80;1.10;;;;;;;14.04;88.88;100547.66;106724;1256;73466;-73
2023/07/20 02:52:02;;;;;;;1.80;0.90;;;;;;;14.02;89.19;100548.85;106808;1256;72459;-73
2023/07/20 02:54:29;;;;;;;2.80;1.50;;;;;;;14.01;89.32;100548.41;107294;1255;71418;-73
2023/07/20 02:56:57;;;;;;;1.80;1.00;;;;;;;14.02;89.45;100545.98;106888;1261;62271;-73
2023/07/20 02:59:24;;;;;;;2.70;1.10;;;;;;;14.03;89.55;100550.46;107084;1257;60225;-72
2023/07/20 03:01:51;;;;;;;2.60;1.40;;;;;;;14.06;89.69;100546.77;106888;1256;74955;-72
2023/07/20 03:04:18;;;;;;;2.40;1.10;;;;;;;14.09;89.79;100548.96;107080;1257;70025;-72
2023/07/20 03:06:45;;;;;;;1.80;1.10;;;;;;;14.13;89.69;100550.40;107021;1259;72122;-73
2023/07/20 03:09:12;;;;;;;2.10;1.30;;;;;;;14.17;89.87;100551.14;107224;1256;61253;-73
2023/07/20 03:11:39;;;;;;;2.20;1.20;;;;;;;14.21;89.70;100549.76;106702;1256;61273;-72
2023/07/20 03:14:05;;;;;;;2.20;1.50;;;;;;;14.24;89.52;100547.14;107084;1256;74672;-72
2023/07/20 03:16:34;;;;;;;2.90;1.30;;;;;;;14.28;89.70;100548.79;107059;1257;71213;-74
2023/07/20 03:19:01;;;;;;;2.50;1.40;;;;;;;14.34;89.69;100553.15;107018;1256;71296;-73
2023/07/20 03:21:28;;;;;;;3.70;1.30;;;;;;;14.38;89.62;100553.37;106786;1256;62045;-72
2023/07/20 03:23:55;;;;;;;2.20;1.20;;;;;;;14.42;89.46;100554.65;106654;1256;61189;-71
2023/07/20 03:26:22;;;;;;;3.70;1.50;;;;;;;14.44;89.36;100550.73;107115;1257;74733;-73
2023/07/20 03:28:50;;;;;;;3.10;1.40;;;;;;;14.48;89.43;100547.58;106837;1256;70081;-72
2023/07/20 03:31:17;;;;;;;4.80;1.20;;;;;;;14.52;89.41;100545.33;107084;1256;72832;-72
2023/07/20 03:33:44;;;;;;;3.60;1.50;;;;;;;14.55;89.39;100547.36;106802;1256;61781;-72
2023/07/20 03:36:11;;;;;;;3.20;1.30;;;;;;;14.60;89.31;100548.77;106923;1257;61298;-72
2023/07/20 03:38:38;;;;;;;2.20;1.50;;;;;;;14.63;89.26;100547.86;107410;1259;74741;-73
2023/07/20 03:41:05;;;;;;;3.70;1.50;;;;;;;14.67;89.15;100543.97;107268;1256;69931;-73
2023/07/20 03:43:32;;;;;;;2.70;1.40;;;;;;;14.72;88.93;100542.20;106851;1257;72932;-72
2023/07/20 03:45:59;;;;;;;2.30;1.40;;;;;;;14.75;88.82;100545.64;106828;1256;61369;-72
2023/07/20 03:48:25;;;;;;;3.10;1.40;;;;;;;14.79;88.84;100546.88;106767;1256;61841;-73
2023/07/20 03:50:53;;;;;;;3.70;1.60;;;;;;;14.82;88.65;100543.79;107319;1257;74848;-73
2023/07/20 03:53:21;;;;;;;2.50;1.30;;;;;;;14.86;88.50;100545.06;107058;1256;71232;-72
2023/07/20 03:55:49;;;;;;;3.70;1.50;;;;;;;14.90;88.38;100545.77;106509;1256;71174;-72
2023/07/20 03:58:16;;;;;;;2.10;1.20;;;;;;;14.92;88.45;100546.17;106911;1256;61279;-73
2023/07/20 04:00:45;;;;;;;2.90;1.50;;;;;;;14.96;88.23;100545.27;107217;1256;61218;-73
2023/07/20 04:03:13;;;;;;;2.30;1.30;;;;;;;14.99;88.08;100544.82;107178;1263;74485;-72
2023/07/20 04:05:40;;;;;;;3.10;1.20;;;;;;;15.05;88.04;100547.05;106873;1257;71403;-72
2023/07/20 04:08:07;;;;;;;3.30;1.30;;;;;;;15.10;87.78;100546.43;107093;1257;71465;-73
2023/07/20 04:10:35;;;;;;;3.10;1.50;;;;;;;15.14;87.71;100549.35;107616;1256;61433;-72
2023/07/20 04:13:02;;;;;;;2.20;1.30;;;;;;;15.18;87.42;100548.80;106950;1256;61334;-73
2023/07/20 04:15:29;;;;;;;2.60;1.30;;;;;;;15.20;87.23;100545.92;106937;1256;74633;-72
2023/07/20 04:17:56;;;;;;;3.00;1.40;;;;;;;15.23;87.22;100549.83;106772;1262;71057;-72
2023/07/20 04:20:23;;;;;;;4.10;1.30;;;;;;;15.26;87.11;100553.02;106690;1257;72785;-72
2023/07/20 04:22:50;;;;;;;5.10;1.40;;;;;;;15.29;87.18;100554.21;106681;1256;59871;-75
2023/07/20 04:25:20;;;;;;;5.40;1.40;;;;;;;15.30;86.97;100552.81;106994;1257;61234;-73
2023/07/20 04:27:47;;;;;;;3.10;1.40;;;;;;;15.31;86.93;100552.52;107399;1259;73443;-72
2023/07/20 04:30:19;;;;;;;3.60;1.50;;;;;;;15.32;86.83;100555.42;106967;1256;70754;-73
2023/07/20 04:32:46;;;;;;;3.50;1.20;;;;;;;15.31;86.86;100561.02;106998;1257;71660;-72
2023/07/20 04:35:48;;;;;;;2.70;1.20;;;;;;;15.32;87.06;100561.84;107349;1256;61724;-72
2023/07/20 04:38:17;;;;;;;2.50;1.30;;;;;;;15.32;87.22;100567.19;107043;1256;61893;-73
2023/07/20 04:40:48;;;;;;;3.30;1.10;;;;;;;15.32;87.53;100566.57;107136;1256;73459;-74
2023/07/20 04:43:16;;;;;;;3.50;1.40;;;;;;;15.31;88.03;100567.70;106745;1257;70510;-73
2023/07/20 04:45:43;;;;;;;3.80;1.40;;;;;;;15.31;88.37;100569.62;106642;1256;71482;-74
2023/07/20 04:48:11;;;;;;;2.40;1.50;;;;;;;15.31;88.82;100568.71;106937;1256;61350;-72
2023/07/20 04:50:40;;;;;;;2.20;1.40;;;;;;;15.29;89.49;100570.57;107350;1256;60481;-75
2023/07/20 04:53:11;;;;;;;2.50;1.60;;;;;;;15.26;90.30;100578.88;106806;1263;74675;-74
2023/07/20 04:55:39;;;;;;;2.60;1.60;;;;;;;15.22;90.82;100577.82;106919;1256;71250;-74
2023/07/20 04:58:06;;;;;;;3.10;1.50;;;;;;;15.16;92.56;100581.07;106892;1257;70944;-74
2023/07/20 05:00:33;;;;;;;2.80;1.60;;;;;;;15.08;92.70;100580.66;107006;1257;61202;-74
2023/07/20 05:03:00;;;;;;;4.00;1.70;;;;;;;15.04;93.53;100580.02;106830;1256;61273;-73
2023/07/20 05:05:27;;;;;;;3.70;1.90;;;;;;;15.01;94.05;100578.67;106935;1257;74635;-74
2023/07/20 05:07:54;;;;;;;3.60;1.80;;;;;;;15.01;94.25;100576.33;106818;1256;70031;-74
2023/07/20 05:10:21;;;;;;;2.80;1.60;;;;;;;15.00;94.75;100577.86;106847;1256;72725;-74
2023/07/20 05:12:48;;;;;;;3.30;1.50;;;;;;;14.95;95.03;100581.43;106568;1257;61309;-74
2023/07/20 05:15:15;;;;;;;3.40;1.50;;;;;;;14.90;95.05;100582.74;106924;1255;61272;-75
2023/07/20 05:17:42;;;;;;;2.60;1.30;;;;;;;14.82;95.23;100586.90;107192;1256;74675;-74
2023/07/20 05:20:12;;;;;;;2.80;1.40;;;;;;;14.75;95.43;100587.13;107112;1256;70030;-74
2023/07/20 05:22:39;;;;;;;2.90;1.50;;;;;;;14.66;95.24;100589.35;107237;1256;72769;-74
2023/07/20 05:25:11;;;;;;;2.30;1.20;;;;;;;14.58;95.72;100588.24;106962;1257;61639;-74
2023/07/20 05:27:38;;;;;;;3.10;1.40;;;;;;;14.52;96.22;100587.45;106766;1259;61964;-75
2023/07/20 05:30:07;;;;;;;2.30;1.40;;;;;;;14.48;97.10;100584.79;106623;1256;74342;-74
2023/07/20 05:32:34;;;;;;;2.60;1.50;;;;;;;14.44;97.80;100593.35;106948;1262;71185;-74
2023/07/20 05:35:01;;;;;;;3.30;1.50;;;;;;;14.41;97.74;100595.75;106678;1256;72663;-74
2023/07/20 05:37:28;;;;;;;5.50;2.00;;;;;;;14.39;98.10;100600.63;106759;1256;61992;-74
2023/07/20 05:39:55;;;;;;;3.50;1.90;;;;;;;14.39;98.48;100599.10;107669;1256;60175;-74
2023/07/20 05:42:22;;;;;;;3.60;1.80;;;;;;;14.44;98.51;100600.09;107597;1256;73935;-75
2023/07/20 05:44:49;;;;;;;4.10;2.30;;;;;;;14.47;98.78;100600.50;107143;1257;70392;-75
2023/07/20 05:47:16;;;;;;;2.70;1.80;;;;;;;14.52;98.89;100601.14;107082;1259;72739;-74
2023/07/20 05:49:43;;;;;;;5.80;2.20;;;;;;;14.57;98.99;100601.17;107116;1259;61356;-75
2023/07/20 05:52:10;;;;;;;4.10;2.30;;;;;;;14.63;98.76;100602.58;106715;1256;62832;-75
2023/07/20 05:54:37;;;;;;;4.00;2.30;;;;;;;14.70;98.73;100605.99;107275;1256;74093;-74
2023/07/20 05:57:05;;;;;;;3.80;2.20;;;;;;;14.74;98.73;100609.27;107132;1256;71168;-75
2023/07/20 05:59:31;;;;;;;3.80;2.00;;;;;;;14.78;98.70;100611.21;106895;1256;71782;-74
2023/07/20 06:01:58;;;;;;;3.00;2.10;;;;;;;14.83;98.27;100609.78;107053;1257;61309;-75
2023/07/20 06:04:25;;;;;;;3.80;2.20;;;;;;;14.87;98.03;100610.10;107538;1256;61707;-75
2023/07/20 06:06:52;;;;;;;3.40;2.50;;;;;;;14.91;97.76;100612.57;106965;1257;74429;-74
2023/07/20 06:09:20;;;;;;;3.80;2.60;;;;;;;14.96;97.54;100612.95;106656;1259;72061;-73
2023/07/20 06:11:46;;;;;;;4.00;2.20;;;;;;;15.01;97.43;100615.00;106788;1257;71721;-74
2023/07/20 06:14:13;;;;;;;2.80;2.30;;;;;;;15.06;97.45;100620.46;106796;1256;61226;-74
2023/07/20 06:16:40;;;;;;;3.40;2.30;;;;;;;15.15;97.27;100618.97;107244;1258;61275;-74
2023/07/20 06:19:10;;;;;;;5.30;2.20;;;;;;;15.21;96.85;100614.66;107015;1256;74168;-74
2023/07/20 06:21:37;;;;;;;3.90;2.70;;;;;;;15.26;96.28;100613.41;106930;1256;70011;-75
2023/07/20 06:24:05;;;;;;;5.30;2.70;;;;;;;15.35;96.18;100612.91;106857;1257;71512;-75
2023/07/20 06:26:37;;;;;;;3.50;2.40;;;;;;;15.49;96.40;100615.67;107497;1255;61962;-74
2023/07/20 06:29:08;;;;;;;5.20;2.20;;;;;;;15.65;96.03;100613.83;107056;1259;61194;-74
2023/07/20 06:31:36;;;;;;;5.10;2.10;;;;;;;15.82;95.75;100611.45;106982;1262;74724;-74
2023/07/20 06:34:03;;;;;;;3.20;2.00;;;;;;;15.99;94.68;100609.81;107571;1257;71160;-73
2023/07/20 06:36:29;;;;;;;3.50;2.20;;;;;;;16.17;93.85;100613.95;106644;1256;71376;-74
2023/07/20 06:38:57;;;;;;;2.30;1.80;;;;;;;16.34;92.70;100617.02;106291;1257;62556;-75
2023/07/20 06:41:26;;;;;;;2.60;1.80;;;;;;;16.48;91.39;100616.23;106256;1262;61373;-75
2023/07/20 06:43:58;;;;;;;2.80;1.60;;;;;;;16.53;89.29;100618.09;106437;1257;73578;-75
2023/07/20 06:46:26;;;;;;;2.60;1.90;;;;;;;16.48;87.80;100622.29;106687;1257;71106;-74
2023/07/20 06:48:54;;;;;;;3.30;2.20;;;;;;;16.45;87.60;100624.58;106353;1257;71455;-74
2023/07/20 06:51:24;;;;;;;4.50;2.20;;;;;;;16.52;88.58;100625.23;106847;1256;61353;-75
2023/07/20 06:53:52;;;;;;;3.30;2.30;;;;;;;16.68;88.93;100635.05;106428;1257;61352;-75
2023/07/20 06:56:18;;;;;;;3.20;2.10;;;;;;;16.67;86.54;100642.42;106718;1256;73268;-71
2023/07/20 06:58:49;;;;;;;4.10;2.30;;;;;;;16.59;86.51;100637.79;106487;1256;69977;-72
2023/07/20 07:01:16;;;;;;;4.40;2.30;;;;;;;16.61;86.98;100642.30;106739;1257;72620;-71
2023/07/20 07:03:43;;;;;;;2.70;1.70;;;;;;;16.60;86.43;100645.83;106311;1262;61360;-73
2023/07/20 07:06:11;;;;;;;3.50;1.80;;;;;;;16.58;86.52;100650.23;106292;1258;61265;-73
2023/07/20 07:08:38;;;;;;;2.30;1.60;;;;;;;16.60;86.80;100645.94;106521;1258;72707;-73
2023/07/20 07:11:05;;;;;;;2.30;1.60;;;;;;;16.63;86.57;100647.98;106912;1256;69918;-72
2023/07/20 07:13:32;;;;;;;2.50;1.50;;;;;;;16.70;85.96;100648.80;107018;1256;71990;-74
2023/07/20 07:15:59;;;;;;;2.50;1.60;;;;;;;16.71;84.74;100652.42;106969;1261;61311;-73
2023/07/20 07:18:26;;;;;;;2.10;1.50;;;;;;;16.66;84.46;100653.58;107207;1257;61867;-74
2023/07/20 07:20:53;;;;;;;2.60;1.50;;;;;;;16.72;84.87;100649.77;107027;1260;73255;-73
2023/07/20 07:23:21;;;;;;;2.50;1.80;;;;;;;16.89;84.73;100646.88;107214;1257;70198;-73
2023/07/20 07:25:48;;;;;;;2.40;1.80;;;;;;;17.09;83.79;100644.37;107676;1257;72445;-74
2023/07/20 07:28:15;;;;;;;2.70;1.70;;;;;;;17.36;82.86;100640.96;108323;1256;60443;-74
2023/07/20 07:30:42;;;;;;;1.50;1.20;;;;;;;17.60;81.72;100638.89;108280;1260;61114;-73
2023/07/20 07:33:09;;;;;;;2.30;1.10;;;;;;;17.84;80.08;100645.42;108362;1260;73259;-73
2023/07/20 07:35:37;;;;;;;2.90;1.20;;;;;;;18.09;79.81;100646.13;108410;1256;69698;-74
2023/07/20 07:38:03;;;;;;;2.00;1.30;;;;;;;18.33;78.77;100643.45;108323;1257;71485;-72
2023/07/20 07:40:50;;;;;;;1.50;1.00;;;;;;;18.40;76.52;100647.83;107962;1257;63700;-76
2023/07/20 07:43:18;;;;;;;2.80;0.70;;;;;;;18.53;76.27;100647.58;107294;1257;62338;-74
2023/07/20 07:45:44;;;;;;;1.40;0.80;;;;;;;18.67;73.31;100649.72;106604;1256;75800;-75
2023/07/20 07:48:12;;;;;;;1.90;0.80;;;;;;;18.59;71.37;100658.17;107085;1257;70001;-72
2023/07/20 07:50:42;;;;;;;2.10;1.00;;;;;;;18.46;71.29;100659.27;106610;1256;71451;-74
2023/07/20 07:53:09;;;;;;;1.60;1.00;;;;;;;18.47;71.89;100658.88;106771;1256;62112;-73
2023/07/20 07:55:36;;;;;;;1.90;1.00;;;;;;;18.51;71.81;100656.19;106821;1257;61247;-73
2023/07/20 07:58:03;;;;;;;2.40;1.00;;;;;;;18.70;71.90;100659.60;106569;1261;73747;-74
2023/07/20 08:00:30;;;;;;;1.40;0.80;;;;;;;18.95;72.23;100658.29;107145;1257;70605;-73
2023/07/20 08:02:57;;;;;;;1.30;0.70;;;;;;;19.16;68.01;100664.88;106576;1262;72141;-73
2023/07/20 08:05:24;;;;;;;1.50;0.50;;;;;;;19.20;66.10;100664.17;106989;1257;61679;-74
2023/07/20 08:07:52;;;;;;;1.70;0.60;;;;;;;19.33;67.19;100661.45;106909;1258;61250;-73
2023/07/20 08:10:19;;;;;;;1.30;0.60;;;;;;;19.60;65.53;100667.27;106929;1256;73654;-75
2023/07/20 08:12:46;;;;;;;1.40;0.40;;;;;;;19.76;63.48;100670.56;106516;1257;69991;-75
2023/07/20 08:15:14;;;;;;;2.30;0.60;;;;;;;19.91;63.28;100668.24;106768;1256;71466;-74
2023/07/20 08:17:44;;;;;;;3.10;0.80;;;;;;;19.91;61.59;100672.12;106677;1257;60735;-73
2023/07/20 08:20:13;;;;;;;2.20;0.60;;;;;;;19.72;61.59;100674.43;107128;1255;59294;-74
2023/07/20 08:22:40;;;;;;;1.60;0.60;;;;;;;19.52;62.31;100672.43;106569;1260;74491;-74
2023/07/20 08:25:07;;;;;;;2.20;0.60;;;;;;;19.33;61.74;100672.01;106708;1256;70034;-75
2023/07/20 08:27:34;;;;;;;2.00;0.70;;;;;;;19.11;62.61;100670.94;106836;1259;72614;-72
2023/07/20 08:30:01;;;;;;;1.90;0.70;;;;;;;19.03;63.64;100672.52;106680;1260;61280;-73
2023/07/20 08:32:28;;;;;;;1.00;0.70;;;;;;;19.12;63.24;100672.27;106762;1261;61170;-73
2023/07/20 08:34:55;;;;;;;5.00;0.80;;;;;;;19.22;61.95;100671.54;106897;1258;73136;-75
2023/07/20 08:37:22;;;;;;;1.80;0.60;;;;;;;19.43;61.39;100671.41;106922;1256;71258;-73
2023/07/20 08:39:49;;;;;;;1.20;0.70;;;;;;;19.58;60.31;100673.42;106998;1256;71501;-74
2023/07/20 08:42:16;;;;;;;2.10;0.90;;;;;;;19.77;59.16;100678.28;106863;1257;61868;-75
2023/07/20 08:44:45;;;;;;;1.70;0.80;;;;;;;19.86;58.02;100671.48;106877;1256;59445;-74
2023/07/20 08:47:15;;;;;;;3.20;1.00;;;;;;;20.06;58.10;100675.44;106872;1262;73616;-76
2023/07/20 08:49:42;;;;;;;2.10;0.80;;;;;;;20.22;58.08;100672.86;106713;1257;69973;-74
2023/07/20 08:52:10;;;;;;;1.30;0.60;;;;;;;20.34;57.64;100676.33;107198;1258;71115;-73
2023/07/20 08:54:37;;;;;;;1.50;0.70;;;;;;;20.25;54.62;100676.95;106650;1255;61168;-74
2023/07/20 08:57:05;;;;;;;1.90;0.80;;;;;;;20.25;55.45;100677.10;106757;1258;61298;-73
2023/07/20 08:59:36;;;;;;;3.10;0.70;;;;;;;20.33;56.14;100674.45;106666;1262;75754;-74
2023/07/20 09:02:04;;;;;;;1.80;0.50;;;;;;;20.38;55.49;100675.27;108449;1257;71148;-75
2023/07/20 09:04:31;;;;;;;4.00;0.60;;;;;;;20.57;54.75;100674.33;108965;1255;71470;-75
2023/07/20 09:06:58;;;;;;;2.20;0.60;;;;;;;20.80;53.56;100670.59;108762;1260;60708;-75
2023/07/20 09:09:26;;;;;;;1.10;0.40;;;;;;;21.08;52.66;100673.27;107145;1255;59398;-73
2023/07/20 09:11:52;;;;;;;2.10;0.50;;;;;;;21.14;51.31;100665.38;107069;1257;72515;-76
2023/07/20 09:14:19;;;;;;;2.30;0.50;;;;;;;21.29;52.36;100657.52;106819;1260;71232;-73
2023/07/20 09:16:50;;;;;;;0.90;0.40;;;;;;;21.35;50.15;100665.65;107253;1257;71516;-73
2023/07/20 09:19:17;;;;;;;1.50;0.50;;;;;;;21.17;49.97;100667.06;106647;1262;61363;-71
2023/07/20 09:21:46;;;;;;;3.40;0.70;;;;;;;21.18;51.25;100667.86;106778;1256;59439;-73
2023/07/20 09:24:13;;;;;;;3.10;0.60;;;;;;;21.30;52.13;100665.84;106827;1257;74069;-74
2023/07/20 09:26:44;;;;;;;1.40;0.50;;;;;;;21.36;52.17;100667.98;107021;1261;72117;-74
2023/07/20 09:29:11;;;;;;;1.70;0.40;;;;;;;21.17;51.61;100672.39;106729;1258;71127;-72
2023/07/20 09:31:40;;;;;;;1.40;0.40;;;;;;;21.07;51.81;100673.48;106896;1258;61263;-73
2023/07/20 09:34:07;;;;;;;1.80;0.50;;;;;;;21.14;52.24;100670.30;107118;1257;61244;-72
2023/07/20 09:36:36;;;;;;;4.60;0.70;;;;;;;21.34;52.94;100662.45;106782;1257;73166;-74
2023/07/20 09:39:05;;;;;;;2.20;0.50;;;;;;;21.61;51.60;100660.44;106955;1257;69395;-72
2023/07/20 09:41:45;;;;;;;2.40;0.60;;;;;;;21.63;48.11;100663.74;106933;1257;72733;-72
2023/07/20 09:44:16;;;;;;;1.10;0.30;;;;;;;21.29;48.12;100666.36;106788;1256;61355;-74
2023/07/20 09:46:47;;;;;;;1.00;0.30;;;;;;;21.20;48.79;100669.04;106984;1258;61401;-73
2023/07/20 09:49:17;;;;;;;1.70;0.50;;;;;;;21.21;48.77;100668.93;106742;1262;73485;-74
2023/07/20 09:51:48;;;;;;;0.90;0.40;;;;;;;21.13;48.93;100670.16;106992;1255;70002;-73
2023/07/20 09:54:16;;;;;;;2.40;0.40;;;;;;;21.03;48.47;100669.99;107006;1256;72750;-71
2023/07/20 09:56:44;;;;;;;1.70;0.30;;;;;;;21.10;46.64;100669.41;107039;1256;61349;-74
2023/07/20 09:59:10;;;;;;;1.50;0.30;;;;;;;21.21;47.21;100667.92;106963;1257;61273;-72
2023/07/20 10:01:41;;;;;;;2.80;0.70;;;;;;;21.23;46.11;100665.85;106778;1258;74956;-72
2023/07/20 10:04:11;;;;;;;1.00;0.30;;;;;;;21.10;46.31;100667.96;106856;1260;69991;-71
2023/07/20 10:06:43;;;;;;;1.40;0.30;;;;;;;21.00;45.92;100674.17;106987;1260;71654;-73
2023/07/20 10:09:12;;;;;;;1.90;0.50;;;;;;;21.06;46.37;100669.20;106893;1255;61452;-73
2023/07/20 10:11:43;;;;;;;1.40;0.30;;;;;;;21.32;46.78;100662.75;107335;1256;61251;-74
2023/07/20 10:14:14;;;;;;;1.80;0.50;;;;;;;21.44;45.57;100664.61;106794;1257;73362;-73
2023/07/20 10:16:51;;;;;;;1.40;0.30;;;;;;;21.42;45.18;100660.70;107036;1258;70256;-73
2023/07/20 10:19:39;;;;;;;0.80;0.30;;;;;;;21.41;45.59;100664.02;106805;1263;71482;-73
2023/07/20 10:22:19;;;;;;;1.10;0.30;;;;;;;21.44;46.18;100668.65;107257;1257;61400;-74
2023/07/20 10:24:47;;;;;;;1.80;0.40;;;;;;;21.48;45.65;100668.63;106867;1257;61275;-73
2023/07/20 10:27:14;;;;;;;0.70;0.20;;;;;;;21.47;46.22;100670.65;106863;1259;74714;-74
2023/07/20 10:29:42;;;;;;;1.30;0.40;;;;;;;21.36;45.29;100674.80;106807;1258;70989;-74
2023/07/20 10:32:09;;;;;;;0.70;0.30;;;;;;;21.49;45.63;100670.04;107230;1256;73966;-73
2023/07/20 10:34:36;;;;;;;1.30;0.40;;;;;;;21.59;44.29;100672.13;107040;1258;62112;-73
2023/07/20 10:37:03;;;;;;;2.00;0.40;;;;;;;21.49;44.22;100667.66;106672;1256;62806;-72
2023/07/20 10:39:33;;;;;;;1.20;0.50;;;;;;;21.35;44.55;100660.58;106551;1262;73732;-72
2023/07/20 10:42:03;;;;;;;1.50;0.50;;;;;;;21.22;44.80;100662.48;106807;1258;70262;-74
2023/07/20 10:44:30;;;;;;;0.70;0.30;;;;;;;21.20;45.31;100661.48;107323;1256;71124;-75
2023/07/20 10:47:01;;;;;;;3.90;0.40;;;;;;;21.18;44.70;100660.64;107193;1255;62036;-74
2023/07/20 10:49:33;;;;;;;1.70;0.40;;;;;;;21.07;44.84;100667.54;106859;1258;61238;-72
2023/07/20 10:52:04;;;;;;;1.50;0.30;;;;;;;21.15;45.35;100662.81;106824;1258;75224;-74
2023/07/20 10:54:33;;;;;;;1.90;0.30;;;;;;;21.16;45.44;100665.58;106927;1256;70191;-73
2023/07/20 10:57:23;;;;;;;1.20;0.40;;;;;;;21.00;45.14;100664.63;106832;1261;71704;-74
2023/07/20 10:59:50;;;;;;;1.70;0.40;;;;;;;20.77;45.89;100668.86;106993;1257;61262;-74
2023/07/20 11:02:19;;;;;;;2.60;0.90;;;;;;;20.72;46.36;100663.71;107539;1260;61673;-73
2023/07/20 11:04:48;;;;;;;2.50;0.50;;;;;;;20.85;47.05;100658.60;106741;1257;73042;-73
2023/07/20 11:07:35;;;;;;;1.80;0.30;;;;;;;21.10;46.63;100661.11;107259;1257;69221;-74
2023/07/20 11:10:13;;;;;;;1.30;0.50;;;;;;;21.28;46.05;100659.98;106847;1256;71539;-72
2023/07/20 11:12:40;;;;;;;0.90;0.40;;;;;;;21.34;45.47;100658.52;106859;1257;61147;-74
2023/07/20 11:15:07;;;;;;;5.10;1.40;;;;;;;21.41;45.07;100655.71;106633;1265;61161;-74
2023/07/20 11:17:35;;;;;;;1.30;0.50;;;;;;;21.58;45.04;100647.98;107520;1257;73421;-74
2023/07/20 11:20:03;;;;;;;1.70;0.40;;;;;;;21.75;44.55;100658.35;106994;1257;71900;-72
2023/07/20 11:22:33;;;;;;;1.30;0.40;;;;;;;21.88;43.75;100655.60;107111;1258;71132;-75